createdAt,value
2018-11-02T00:03:37.198Z,13.29
2018-11-02T00:11:58.257Z,13.53
2018-11-02T00:20:19.312Z,13.37
2018-11-02T00:28:40.319Z,13.42
2018-11-02T00:37:01.330Z,13.45
2018-11-02T00:45:22.341Z,13.65
2018-11-02T00:53:43.386Z,13.72
2018-11-02T01:02:04.398Z,13.75
2018-11-02T01:10:25.395Z,13.78
2018-11-02T01:18:46.391Z,13.58
2018-11-02T01:27:07.397Z,13.19
2018-11-02T01:35:28.385Z,12.92
2018-11-02T01:43:49.393Z,12.96
2018-11-02T01:52:10.405Z,12.78
2018-11-02T02:00:31.514Z,12.73
2018-11-02T02:08:52.520Z,12.87
2018-11-02T02:17:13.552Z,13.03
2018-11-02T02:25:34.648Z,12.97
2018-11-02T02:33:55.664Z,13.04
2018-11-02T02:42:16.772Z,13.23
2018-11-02T02:50:37.797Z,13.21
2018-11-02T02:58:58.815Z,13.19
2018-11-02T03:07:19.845Z,12.99
2018-11-02T03:15:40.876Z,12.99
2018-11-02T03:24:01.889Z,12.82
2018-11-02T03:32:22.919Z,12.73
2018-11-02T03:40:43.925Z,12.97
2018-11-02T03:49:05.001Z,13.04
2018-11-02T03:57:25.989Z,12.80
2018-11-02T04:05:47.333Z,12.77
2018-11-02T04:14:08.341Z,12.84
2018-11-02T04:22:29.338Z,12.72
2018-11-02T04:30:50.425Z,12.75
2018-11-02T04:39:11.389Z,12.22
2018-11-02T04:47:32.501Z,12.02
2018-11-02T04:55:53.556Z,12.05
2018-11-02T05:04:14.565Z,12.06
2018-11-02T05:12:35.580Z,12.14
2018-11-02T05:20:56.607Z,11.99
2018-11-02T05:29:17.723Z,11.46
2018-11-02T05:37:38.724Z,11.34
2018-11-02T05:45:59.752Z,11.35
2018-11-02T05:54:20.912Z,11.27
2018-11-02T06:02:41.909Z,11.13
2018-11-02T06:11:02.942Z,11.30
2018-11-02T06:19:23.958Z,11.10
2018-11-02T06:27:44.965Z,10.98
2018-11-02T06:36:05.968Z,11.06
2018-11-02T06:44:27.011Z,10.97
2018-11-02T06:52:47.962Z,11.17
2018-11-02T07:01:08.973Z,11.06
2018-11-02T07:09:30.004Z,11.06
2018-11-02T07:17:50.998Z,11.22
2018-11-02T07:26:12.002Z,11.24
2018-11-02T07:34:33.064Z,11.30
2018-11-02T07:42:53.995Z,11.61
2018-11-02T07:51:15.085Z,11.55
2018-11-02T07:59:36.097Z,11.73
2018-11-02T08:07:57.106Z,11.87
2018-11-02T08:16:18.130Z,12.40
2018-11-02T08:24:39.253Z,12.62
2018-11-02T08:33:00.176Z,12.52
2018-11-02T08:41:21.162Z,12.36
2018-11-02T08:49:42.174Z,12.33
2018-11-02T08:58:03.290Z,12.59
2018-11-02T09:06:24.318Z,12.87
2018-11-02T09:14:45.364Z,12.88
2018-11-02T09:23:06.383Z,13.22
2018-11-02T09:31:27.426Z,13.05
2018-11-02T09:39:48.412Z,13.01
2018-11-02T09:48:09.428Z,13.28
2018-11-02T09:56:30.431Z,13.44
2018-11-02T10:04:51.449Z,13.90
2018-11-02T10:13:12.503Z,14.41
2018-11-02T10:21:33.525Z,14.15
2018-11-02T10:29:54.540Z,14.30
2018-11-02T10:38:15.566Z,14.43
2018-11-02T10:46:36.579Z,14.77
2018-11-02T10:54:57.615Z,14.41
2018-11-02T11:03:18.626Z,14.44
2018-11-02T11:11:39.853Z,14.42
2018-11-02T11:20:00.742Z,14.49
2018-11-02T11:28:21.772Z,14.29
2018-11-02T11:36:42.793Z,15.24
2018-11-02T11:45:03.825Z,16.59
2018-11-02T11:53:24.841Z,16.35
2018-11-02T12:01:45.863Z,15.57
2018-11-02T12:10:06.968Z,14.95
2018-11-02T12:18:28.134Z,15.01
2018-11-02T12:26:49.149Z,15.74
2018-11-02T12:35:10.257Z,15.43
2018-11-02T12:43:31.421Z,15.51
2018-11-02T12:51:52.297Z,16.24
2018-11-02T13:00:13.309Z,15.82
2018-11-02T13:08:34.326Z,16.10
2018-11-02T13:16:55.363Z,16.29
2018-11-02T13:25:16.360Z,16.46
2018-11-02T13:33:37.381Z,16.57
2018-11-02T13:41:58.415Z,18.58
2018-11-02T13:50:19.511Z,20.51
2018-11-02T13:58:40.510Z,20.99
2018-11-02T14:07:01.645Z,19.58
2018-11-02T14:15:22.642Z,18.57
2018-11-02T14:23:43.665Z,18.47
2018-11-02T14:32:04.717Z,18.52
2018-11-02T14:40:25.737Z,18.07
2018-11-02T14:48:46.745Z,17.71
2018-11-02T14:57:07.762Z,17.33
2018-11-02T15:05:28.768Z,17.55
2018-11-02T15:13:49.781Z,17.84
2018-11-02T15:22:10.810Z,17.00
2018-11-02T15:30:31.823Z,16.25
2018-11-02T15:38:52.837Z,15.43
2018-11-02T15:47:13.829Z,14.63
2018-11-02T15:55:34.868Z,14.07
2018-11-02T16:03:55.941Z,13.56
2018-11-02T16:12:16.959Z,13.03
2018-11-02T16:20:38.045Z,12.66
2018-11-02T16:28:59.087Z,12.38
2018-11-02T16:37:20.454Z,12.02
2018-11-02T16:45:41.482Z,11.62
2018-11-02T16:54:02.512Z,11.48
2018-11-02T17:02:23.553Z,11.36
2018-11-02T17:10:44.565Z,11.23
2018-11-02T17:19:05.562Z,10.99
2018-11-02T17:27:26.568Z,10.76
2018-11-02T17:35:47.579Z,10.52
2018-11-02T17:44:08.589Z,10.31
2018-11-02T17:52:29.574Z,10.11
2018-11-02T18:00:50.559Z,9.93
2018-11-02T18:09:11.589Z,9.80
2018-11-02T18:17:32.887Z,9.68
2018-11-02T18:25:53.911Z,9.51
2018-11-02T18:34:14.910Z,9.35
2018-11-02T18:42:35.926Z,9.15
2018-11-02T18:50:57.047Z,9.01
2018-11-02T18:59:18.039Z,8.84
2018-11-02T19:07:39.044Z,8.80
2018-11-02T19:16:00.072Z,8.71
2018-11-02T19:24:21.220Z,8.64
2018-11-02T19:32:42.239Z,8.47
2018-11-02T19:41:03.330Z,8.35
2018-11-02T19:49:24.360Z,8.27
2018-11-02T19:57:45.372Z,8.19
2018-11-02T20:06:06.379Z,8.10
2018-11-02T20:14:27.413Z,7.99
2018-11-02T20:22:48.424Z,8.00
2018-11-02T20:31:09.461Z,7.89
2018-11-02T20:39:30.493Z,7.81
2018-11-02T20:47:51.458Z,7.76
2018-11-02T20:56:12.473Z,7.62
2018-11-02T21:04:33.585Z,7.57
2018-11-02T21:12:54.692Z,7.46
2018-11-02T21:21:15.786Z,7.41
2018-11-02T21:29:36.768Z,7.33
2018-11-02T21:37:57.896Z,7.30
2018-11-02T21:46:18.881Z,7.32
2018-11-02T21:54:39.891Z,7.30
2018-11-02T22:03:00.908Z,7.33
2018-11-02T22:11:21.955Z,7.25
2018-11-02T22:19:42.964Z,7.18
2018-11-02T22:28:03.969Z,7.15
2018-11-02T22:36:24.996Z,7.06
2018-11-02T22:44:46.020Z,7.05
2018-11-02T22:53:07.029Z,7.01
2018-11-02T23:01:28.041Z,6.98
2018-11-02T23:09:49.122Z,6.89
2018-11-02T23:18:10.145Z,6.81
2018-11-02T23:26:31.301Z,6.75
2018-11-02T23:34:52.343Z,6.79
2018-11-02T23:43:13.332Z,6.83
2018-11-02T23:51:34.340Z,6.76
2018-11-02T23:59:55.377Z,6.75
